CYIK

Ivujivik Airport

Ivujivik, Quebec, Canada
METAR CYIK 162100Z 14012KT 9SM -SN FEW026 BKN036 M07/M09 A2968 RMK SC2SC5 SN CVR TR LOOSE LAST STFD OBS/NEXT 171200UTC SLP055
Observed Flight Rules
Oct-16 @ 21:00 UTC (9 hours ago) Visual Flight Rules
Wind Visibility Clouds Conditions
140° at 12 knots 9 miles
  • Few at 2,600' AGL
  • Broken at 3,600' AGL
  • Light Snow
Temperatures Readings
Current -7°C / 19°F
Dewpoint -9°C / 16°F
Humidity 86%
Altimeter 29.68" Hg
Pressure 1005.5 hPa
Elevation 42
METAR CYIK 162100Z 14012KT 9SM -SN FEW026 BKN036 M07/M09 A2968 RMK SC2SC5 SN CVR TR LOOSE LAST STFD OBS/NEXT 171200UTC SLP055
Observed Flight Rules
Oct-16 @ 21:00 UTC
(9 hours ago)
VFR
Wind Visibility
140° at 12 knots 9 miles
Clouds
  • Few at 2,600' AGL
  • Broken at 3,600' AGL
Conditions
  • Light Snow
Temperature Dewpoint
-7°C / 19°F -9°C / 16°F
Humidity Altimeter Pressure
86% 29.68" Hg 1005.5 hPa